x

8639348 - Money Point, Va (mnpv2) Weather Station

10:30am - Sat 25th Feb 2017 All times are EST. -5 hours from GMT.

  • Wind
    8mph, 13mph gusts
  • Sea Temp 54°f
  • Air Temp 69°f
  • Sea Pressure 1006.1mb
  • 8639348 - Money Point, Va
  • 8639348 - Money Point, Va

More Historic Weather Station data

Upgrade to MSW Pro to gain access to the past 30 days of data for over 8000 Wavebouys and Weather Stations around the globe.

Join Pro

Comparision Forecast

View Surf forecast
   
Sat 02/25 10:30am 8 13 mph 1006.1mb 54f 69f
10:24am 9 13 mph 1006.2mb 54f 69f
10:18am 10 13 mph 1006.4mb 54f 68f
10:12am 7 10 mph 1006.4mb 54f 68f
10:06am 8 10 mph 1006.4mb 54f 68f
10:00am 10 16 mph 1006.6mb 54f 68f
9:54am 8 10 mph 1006.7mb 54f 67f
9:48am 8 10 mph 1006.8mb 54f 67f
9:42am 7 13 mph 1006.9mb 54f 66f
9:36am 9 11 mph 1007.1mb 54f 66f
9:30am 7 10 mph 1007.2mb 54f 65f
9:24am 7 10 mph 1007.3mb 54f 65f
9:18am 8 13 mph 1007.4mb 54f 65f
9:12am 7 10 mph 1007.5mb 54f 64f
9:06am 7 10 mph 1007.7mb 54f 64f
9:00am 3 7 mph 1007.8mb 54f 63f
8:54am 2 5 mph 1007.8mb 54f 62f
8:48am 3 5 mph 1007.8mb 54f 61f
8:42am 6 7 mph 1007.9mb 54f 60f
8:36am 3 6 mph 1007.9mb 54f 60f
8:30am 3 5 mph 1008mb 54f 59f
8:24am 2 6 mph 1008mb 54f 59f
8:18am 3 5 mph 1008.2mb 54f 58f
8:12am 3 6 mph 1008.2mb 54f 57f
8:06am 3 5 mph 1008.1mb 54f 57f
8:00am 3 5 mph 1008mb 54f 56f
7:54am 1 2 mph 1008.2mb 54f 55f
7:48am  -  1 mph - - -
7:42am 2
mph
1008.2mb 54f 54f
7:36am 2
mph
1008.2mb 54f 54f
7:30am 2
mph
1008.2mb 55f 53f
7:24am 2
mph
1008.1mb 55f 53f
7:18am 2
mph
1008.2mb 55f 53f
7:12am 2
mph
1008.2mb 55f 52f
7:06am 1
mph
1008.1mb 55f 52f
7:00am 1 2 mph 1008.1mb 55f 52f
6:54am 1
mph
1008.2mb 55f 51f
6:48am 1 2 mph 1008.2mb 55f 51f
6:42am 3
mph
1008.2mb 55f 51f
6:36am 3
mph
1008.2mb 55f 52f
6:30am 2
mph
1008.2mb 55f 52f
6:24am  -  2 mph 1008.2mb 55f 52f
6:18am  -  mph 1008.2mb 55f -
6:12am  -  mph 1008.2mb 55f 52f
6:06am  -  mph 1008.2mb 55f 52f
6:00am  -  mph 1008.2mb 55f 52f
5:54am  -  mph 1008.3mb 55f 52f
5:48am  -  mph 1008.3mb 55f 52f
5:42am  -  mph 1008.2mb 55f 52f
5:36am  -  mph 1008.2mb 55f 52f
5:30am  -  mph 1008.1mb 55f 53f
5:24am  -  mph 1008.1mb 55f 53f
5:18am  -  mph 1008.1mb 55f 53f
5:12am  -  1 mph 1008.1mb 55f 53f
5:06am  -  1 mph 1008.2mb 55f 53f
5:00am  -  mph 1008.2mb 55f 54f
4:54am  -  1 mph 1008.2mb 55f 53f
4:48am  -  mph 1008.3mb 55f 54f
4:42am  -  1 mph 1008.2mb 55f 54f
4:36am 1
mph
1008.2mb 55f 54f
4:30am 1 2 mph 1008.2mb 55f 54f
4:24am 2
mph
1008.1mb 55f 54f
4:18am  -  mph 1008.1mb 55f 55f
4:12am  -  mph 1008.2mb 55f 54f
4:06am  -  mph 1008.2mb 55f 54f
4:00am  -  1 mph 1008.2mb 55f 54f
3:54am 1 2 mph 1008.2mb 55f 55f
3:48am 2
mph
1008.2mb 55f 55f
3:42am 2 3 mph 1008.2mb 55f 55f
3:36am 2 3 mph 1008.3mb 55f 55f
3:30am 2
mph
1008.3mb 55f 54f
3:24am 2
mph
1008.3mb 55f 55f
3:18am 2
mph
1008.5mb 55f 55f
3:12am 2
mph
1008.7mb 55f 55f
3:06am 2
mph
1008.7mb 55f 55f
3:00am 1
mph
1008.8mb 55f 55f
2:54am  -  1 mph 1008.9mb 55f 55f
2:48am  -  1 mph 1009mb 55f -
2:42am 1
mph
1009.1mb 55f 55f
2:36am 1
mph
1009.1mb 55f 56f
2:30am  -  mph 1009.2mb 55f 56f
2:24am 1 2 mph 1009.3mb 55f 56f
2:18am  -  1 mph 1009.4mb 55f 57f
2:12am  -  1 mph 1009.5mb 55f 56f
2:06am  -  1 mph 1009.5mb 55f 57f
2:00am  -  mph 1009.4mb 55f 57f
1:54am  -  1 mph 1009.5mb 55f 57f
1:48am  -  1 mph 1009.5mb 55f -
1:42am  -  1 mph 1009.5mb 55f -
1:36am  -  1 mph 1009.5mb 55f -
1:30am  -  1 mph 1009.5mb 55f 58f
1:24am 1
mph
1009.5mb 55f 58f
1:18am  -  1 mph - - -
1:12am 2 3 mph 1009.5mb 55f 58f
1:06am 3
mph
1009.4mb 55f 58f
1:00am 5
mph
1009.4mb 55f 58f
12:54am 3 5 mph 1009.4mb 55f 58f
12:48am 3 5 mph 1009.4mb - -
12:42am 3 5 mph 1009.4mb - -
12:36am 3 5 mph 1009.5mb - -
12:30am 3
mph
1009.6mb 55f 58f
12:24am 2
mph
1009.6mb 55f 59f
12:18am 3
mph
1009.7mb 55f 59f
12:12am 3 5 mph 1009.7mb 55f 59f
12:06am 3 5 mph 1009.7mb 55f 59f
12:00am 3 5 mph 1009.8mb 55f 59f
Fri 02/24 11:54pm 3 5 mph 1009.9mb 55f 60f
11:48pm 5
mph
1010mb 55f 60f
11:42pm 5
mph
1010.1mb 55f 60f
11:36pm 2 3 mph 1010.2mb 55f 60f
11:30pm  -  2 mph 1010.3mb 55f 60f
11:24pm  -  1 mph 1010.3mb 54f 60f
11:18pm  -  2 mph 1010.4mb 54f 60f
11:12pm 3
mph
1010.4mb 54f 60f
11:06pm 3 5 mph 1010.4mb 54f 60f
11:00pm 5
mph
1010.5mb 54f 60f
10:54pm 3 5 mph 1010.5mb 54f 61f
10:48pm 3
mph
1010.6mb 54f 61f
10:42pm 2 3 mph 1010.7mb 54f 61f
10:36pm 3 5 mph 1010.7mb 54f 61f
10:30pm 5
mph
1010.6mb 54f 61f
10:24pm 5 6 mph 1010.7mb 54f 62f
10:18pm 5 6 mph 1010.7mb 54f 62f
10:12pm 6
mph
1010.7mb 54f 62f
10:06pm 3 5 mph 1010.8mb 54f 62f
10:00pm 1 2 mph 1010.9mb 54f 62f
9:54pm 1 2 mph 1010.9mb 54f 62f
9:48pm 2 3 mph 1010.8mb 54f 62f
9:42pm 2 3 mph 1010.8mb 54f 63f
9:36pm 3
mph
1010.8mb 54f 63f
9:30pm 3 6 mph 1010.8mb 54f 63f
9:24pm 3 5 mph 1010.9mb 54f 63f
9:18pm 3 5 mph 1010.9mb 54f 63f
9:12pm 3 5 mph 1010.9mb 54f 64f
9:06pm 2 3 mph 1010.9mb 54f 64f
9:00pm 5 7 mph 1010.9mb 54f 64f
8:54pm 6 8 mph 1010.9mb 54f 64f
8:48pm 7
mph
1010.8mb 54f 64f
8:42pm 7 9 mph 1010.9mb 54f 64f
8:36pm 7 10 mph 1010.8mb 54f 64f
8:30pm 7 9 mph 1010.8mb 54f 65f
8:24pm 8 10 mph 1010.8mb 54f 65f
8:18pm 9 11 mph - - -
8:12pm 10 14 mph 1010.8mb 54f 65f
8:06pm 9 14 mph 1010.8mb 54f 65f
8:00pm 11 15 mph 1010.8mb 54f 65f
7:54pm 11 15 mph 1010.7mb 54f 65f
7:48pm 13 17 mph 1010.7mb 54f 65f
7:42pm 11 14 mph 1010.8mb 54f 65f
7:36pm 11 14 mph 1010.7mb 54f 65f
7:30pm 14 18 mph 1010.7mb 54f 66f
7:24pm 15 18 mph 1010.6mb 54f 66f
7:18pm 14 17 mph 1010.7mb 54f 66f
7:12pm 13 18 mph 1010.8mb 54f 66f
7:06pm 13 16 mph 1010.9mb 54f 66f
7:00pm 11 15 mph 1011mb 54f 66f
6:54pm 14 20 mph 1011mb 54f 66f
6:48pm 11 14 mph 1011mb 54f 66f
6:42pm 9 14 mph 1011mb 54f 66f
6:36pm 11 15 mph 1011mb 54f 67f
6:30pm 10 14 mph 1011mb 54f 67f
6:24pm 11 14 mph 1011mb 54f 67f
6:18pm 13 16 mph 1010.9mb 54f 68f
6:12pm 11 14 mph 1010.9mb 54f 68f
6:06pm 9 14 mph 1010.9mb 54f 68f
6:00pm 13 15 mph 1010.9mb 54f 69f
5:54pm 11 15 mph 1010.9mb 54f 69f
5:48pm 11 16 mph 1010.9mb - -
5:42pm 14 17 mph 1010.9mb - 69f
5:36pm 14 16 mph 1010.9mb - 70f
5:30pm 14 17 mph 1010.9mb 54f 70f
5:24pm 10 13 mph 1011mb 54f 70f
5:18pm 10 13 mph - - -
5:12pm 10 13 mph 1011.1mb 55f 71f
5:06pm 14 20 mph 1011.1mb 55f 71f
5:00pm 14 17 mph 1011.1mb 55f 71f
4:54pm 14 17 mph 1011.1mb 55f 71f
4:48pm 9 14 mph 1011.1mb 55f 70f
4:42pm 13 15 mph 1011mb 55f 71f
4:36pm 14 18 mph 1011mb 55f 71f
4:30pm 13 16 mph 1011mb 55f 71f
4:24pm 14 17 mph 1010.9mb 55f 72f
4:18pm 13 18 mph 1010.9mb 55f 72f
4:12pm 15 20 mph 1010.9mb 55f 72f
4:06pm 14 17 mph 1010.9mb 55f 72f
4:00pm 14 18 mph 1010.9mb 55f 72f
3:54pm 15 20 mph 1010.9mb 55f 72f
3:48pm 15 18 mph 1010.9mb 55f 73f
3:42pm 15 18 mph 1010.9mb 55f 73f
3:36pm 15 18 mph 1010.9mb 55f 73f
3:30pm 14 17 mph 1011mb 55f 73f
3:24pm 13 16 mph 1011mb 55f 73f
3:18pm 16 21 mph 1011mb 55f 73f
3:12pm 13 17 mph 1011mb 55f 73f
3:06pm 13 15 mph 1011mb 55f 73f
3:00pm 15 17 mph 1010.9mb 55f 73f
2:54pm 13 17 mph 1010.9mb 55f 73f
2:48pm 13 16 mph 1011mb 55f 73f
2:42pm 11 15 mph 1011mb 55f 73f
2:36pm 10 14 mph 1011mb 55f 73f
2:30pm 13 16 mph 1010.9mb 55f 74f
2:24pm 11 14 mph 1011.1mb 55f 74f
2:18pm 11 15 mph 1011.1mb 55f 74f
2:12pm 9 11 mph 1011.2mb 55f 74f
2:06pm 10 14 mph 1011.2mb 55f 74f
2:00pm 11 16 mph 1011.2mb 55f 74f
1:54pm 11 14 mph 1011.3mb 55f 74f
1:48pm 9 11 mph 1011.4mb 54f 73f
1:42pm 8 11 mph 1011.4mb 54f 73f
1:36pm 11 14 mph 1011.5mb 54f 73f
1:30pm 8 13 mph 1011.5mb 54f 72f
1:24pm 8 13 mph 1011.6mb 54f 73f
1:18pm 8 13 mph 1011.7mb 54f 74f
1:12pm 6 9 mph 1011.8mb 54f 74f
1:06pm 8 11 mph 1011.9mb 54f 74f
1:00pm 8 13 mph 1012mb 54f 73f
12:54pm 7 11 mph 1012.2mb 54f 73f
12:48pm 7 9 mph 1012.3mb 54f 73f
12:42pm 9 14 mph 1012.4mb 54f 73f
12:36pm 8 10 mph 1012.4mb 53f 73f
12:30pm 8 13 mph 1012.4mb 53f 73f
12:24pm 9 14 mph 1012.5mb 53f 73f
12:18pm 7 9 mph 1012.6mb 53f 73f
12:12pm 7 9 mph 1012.8mb 53f 72f
12:06pm 8 10 mph 1012.9mb 53f 72f
12:00pm 8 11 mph 1013mb 53f 72f
11:54am 7 9 mph 1013.1mb 53f 72f
11:48am 7 10 mph 1013.2mb 53f 72f
11:42am 6 9 mph 1013.3mb 53f 72f
11:36am 9 13 mph 1013.4mb 53f 72f
11:30am 6 9 mph 1013.5mb 53f 72f
11:24am 7 9 mph 1013.5mb 53f 71f
11:18am 8 10 mph 1013.6mb 53f 71f
11:12am 9 13 mph 1013.7mb 53f 71f
11:06am 5 8 mph 1013.7mb 53f 71f
11:00am 7 9 mph 1013.8mb 53f 70f
10:54am 5 7 mph 1013.9mb 53f 70f
10:48am 5 8 mph 1014mb 53f 70f
10:42am 7 9 mph 1014mb 53f 70f
10:36am 6 7 mph 1014.1mb 53f 69f
10:30am 7 9 mph 1014.1mb 53f 69f
10:24am 6 8 mph 1014.2mb 53f 69f
10:18am 6 9 mph 1014.4mb 53f 69f
10:12am 6 8 mph 1014.5mb 53f 69f
10:06am 8 10 mph 1014.4mb 53f 68f
10:00am 6 8 mph 1014.5mb 53f 68f
9:54am 7 8 mph 1014.5mb 53f 68f
9:48am 6 9 mph - - -
9:42am 8 10 mph 1014.4mb 53f 67f
9:36am 6 9 mph 1014.4mb 53f 67f
9:30am 6 7 mph 1014.5mb 53f 66f
9:24am 7 8 mph 1014.5mb 53f 66f
9:18am 6 9 mph 1014.5mb 53f 65f
9:12am 6 8 mph 1014.5mb 53f 65f
9:06am 5 7 mph 1014.5mb 53f 64f
9:00am 3 7 mph 1014.5mb 53f 64f
8:54am 5 7 mph 1014.5mb 53f 64f
8:48am 2 3 mph 1014.5mb 53f 64f
8:42am 1 2 mph 1014.4mb 53f 63f
8:36am  -  1 mph 1014.4mb 53f 62f
8:30am  -  1 mph 1014.4mb 53f 62f
8:24am  -  1 mph 1014.4mb 53f 61f
8:18am  -  1 mph 1014.4mb 53f 60f
8:12am 1
mph
1014.4mb 53f 59f
8:06am  -  1 mph 1014.3mb 53f 57f
8:00am 1 2 mph 1014.3mb 53f 56f
7:54am 1
mph
1014.2mb 53f 55f
7:48am  -  1 mph 1014.1mb 53f 54f
7:42am  -  2 mph 1014.1mb 53f 53f
7:36am 3 6 mph 1014mb 53f 53f
7:30am 1
mph
1013.9mb 53f 52f
7:24am  -  1 mph 1013.8mb 53f 52f
7:18am 1
mph
1013.8mb 53f 52f
7:12am 1
mph
1013.8mb 53f 52f
7:06am  -  mph 1013.7mb 53f 52f
7:00am  -  mph 1013.7mb 53f 52f
6:54am  -  1 mph 1013.8mb 53f 52f
6:48am 2
mph
1013.8mb 53f 51f
6:42am  -  2 mph 1013.9mb 53f 52f
6:36am  -  mph 1013.9mb 53f 52f
6:30am  -  1 mph 1013.9mb 53f 52f
6:24am  -  mph 1013.9mb 53f 52f
6:18am  -  mph 1013.9mb 53f 52f
6:12am  -  mph 1013.8mb 53f 52f
6:06am  -  mph 1013.7mb 53f 52f
6:00am  -  mph 1013.7mb 53f 52f
5:54am  -  mph 1013.7mb 53f 52f
5:48am  -  1 mph 1013.6mb 53f 53f
5:42am  -  mph 1013.6mb 53f 53f
5:36am  -  mph 1013.5mb 53f 53f
5:30am  -  1 mph 1013.6mb 53f 53f
5:24am 1
mph
1013.5mb 54f 53f
5:18am 1 2 mph 1013.4mb 54f -
5:12am 2 3 mph 1013.5mb 54f 53f
5:06am 3
mph
1013.5mb 54f 53f
5:00am 1 2 mph 1013.4mb 54f 53f
4:54am  -  mph 1013.2mb 54f 53f
4:48am  -  mph 1013.2mb 54f 53f
4:42am  -  1 mph 1013.2mb 54f 53f
4:36am 2
mph
1013.2mb 54f 54f
4:30am 1
mph
1013.2mb 54f 53f
4:24am 1 2 mph 1013.1mb 54f 54f
4:18am  -  1 mph 1013.1mb 54f 54f
4:12am 2 3 mph 1013.1mb 54f 55f
4:06am  -  mph 1013.1mb 54f 54f
4:00am  -  mph 1013.2mb 54f 54f
3:54am  -  mph 1013.3mb 54f 54f
3:48am  -  mph 1013.3mb 54f 54f
3:42am  -  mph 1013.3mb 54f 55f
3:36am  -  1 mph 1013.3mb 54f 55f
3:30am 1 2 mph 1013.3mb 54f 55f
3:24am 1 2 mph 1013.4mb 54f 55f
3:18am 2
mph
1013.4mb 54f 55f
3:12am  -  1 mph 1013.3mb 54f 55f
3:06am  -  1 mph 1013.3mb 54f 55f
3:00am 1 2 mph 1013.3mb 54f 55f
2:54am 3 5 mph 1013.3mb 54f 56f
2:48am 5
mph
1013.3mb 54f 55f
2:42am 3 5 mph 1013.3mb 54f 55f
2:36am 3
mph
1013.5mb 54f 55f
2:30am 3
mph
1013.4mb 54f 55f
2:24am 2 3 mph 1013.5mb 54f 55f
2:18am 2 3 mph 1013.6mb 54f 55f
2:12am 2 3 mph 1013.6mb 54f 55f
2:06am 3
mph
1013.6mb 54f 55f
2:00am 2
mph
1013.6mb 54f 55f
1:54am 2 3 mph 1013.7mb 54f 55f
1:48am 2 3 mph 1013.6mb 54f 55f
1:42am 3
mph
1013.6mb 54f -
1:36am 2
mph
1013.6mb 54f -
1:30am 2
mph
1013.6mb 54f 55f
1:24am 2
mph
1013.6mb 54f 55f
1:18am 3
mph
1013.7mb 54f 56f
1:12am 3 5 mph 1013.7mb 54f 55f
1:06am 2 3 mph 1013.8mb 54f 55f
1:00am  -  2 mph 1013.8mb 54f 55f
12:54am  -  1 mph 1013.7mb 54f 55f
12:48am 1
mph
1013.7mb 54f 56f
12:42am 2
mph
1013.7mb 54f -
12:36am 1 2 mph 1013.7mb 53f -
12:30am 2
mph
1013.7mb 53f 56f
12:24am 1 2 mph 1013.8mb 53f 56f
12:18am 2
mph
1013.8mb 53f 56f
12:12am 1
mph
1014mb 53f 56f
12:06am  -  1 mph 1014mb 53f 56f
12:00am  -  1 mph 1013.9mb 53f 56f
Thu 02/23 11:54pm 1
mph
1013.9mb 53f 56f
11:48pm  -  1 mph - - -
11:42pm  -  1 mph 1013.9mb 53f 57f
11:36pm 2
mph
1013.9mb 53f 57f
11:30pm 3
mph
1013.9mb 53f 56f
11:24pm 3
mph
1013.9mb 53f 57f
11:18pm 3 5 mph 1013.9mb 53f 57f
11:12pm 3 5 mph 1013.9mb 53f 58f
11:06pm 3
mph
1014mb 53f 57f
11:00pm 2
mph
1014mb 53f 58f
10:54pm 2 3 mph 1014mb 53f 58f
10:48pm 2
mph
1014mb 53f 58f
10:42pm 3
mph
1014mb 53f 58f
10:36pm 3
mph
1014mb 53f 59f
10:30pm 2
mph
1013.9mb 53f 59f
10:24pm 2
mph
1014mb 53f 59f
10:18pm 2
mph
1014mb 53f 59f
10:12pm 2
mph
1014mb 53f 59f
10:06pm 1 2 mph 1014mb 53f 59f
10:00pm 1
mph
1013.9mb 53f 59f
9:54pm  -  1 mph 1013.9mb 53f 59f
9:48pm 1 2 mph 1013.8mb 53f 59f
9:42pm 1 2 mph 1013.7mb 53f 60f
9:36pm 2
mph
1013.6mb 53f 60f
9:30pm 2
mph
1013.6mb 53f 60f
9:24pm 3 5 mph 1013.5mb 53f 60f
9:18pm 5
mph
1013.5mb 53f 60f
9:12pm 5 6 mph 1013.5mb 53f 60f
9:06pm 5 6 mph 1013.5mb 53f 60f
9:00pm 3 5 mph 1013.6mb 53f 60f
8:54pm 6 7 mph 1013.5mb 53f 60f
8:48pm 5 6 mph 1013.6mb - -
8:42pm 5 6 mph 1013.6mb 53f 61f
8:36pm 6
mph
1013.7mb 53f 61f
8:30pm 5 6 mph 1013.7mb 53f 61f
8:24pm 5 6 mph 1013.8mb 53f 61f
8:18pm 5 6 mph 1013.8mb 53f 61f
8:12pm 5 6 mph 1013.7mb 53f 62f
8:06pm 6
mph
1013.7mb 53f 62f
8:00pm 5 6 mph 1013.7mb 53f 62f
7:54pm 5 6 mph 1013.6mb 53f 62f
7:48pm 5 6 mph 1013.6mb 53f 62f
7:42pm 6
mph
1013.6mb 53f 62f
7:36pm 5 6 mph 1013.6mb 53f 63f
7:30pm 5
mph
1013.5mb 53f 63f
7:24pm 5 6 mph 1013.4mb 53f 63f
7:18pm 6 7 mph 1013.3mb 53f 63f
7:12pm 7 8 mph 1013.3mb 53f 63f
7:06pm 7 9 mph 1013.2mb 53f 63f
7:00pm 6 8 mph 1013.2mb 53f 63f
6:54pm 6 7 mph 1013.1mb 53f 64f
6:48pm 7 8 mph 1013mb 53f 64f
6:42pm 6 7 mph 1013mb 53f 64f
6:36pm 6 7 mph 1013mb 53f 65f
6:30pm 6 8 mph 1012.9mb 53f 65f
6:24pm 8 9 mph 1012.9mb 53f 66f
6:18pm 6 7 mph 1012.8mb 53f 66f
6:12pm 6 7 mph 1012.8mb 53f 67f
6:06pm 6 7 mph 1012.8mb 53f 67f
6:00pm 8 10 mph 1012.8mb 53f 67f
5:54pm 7 9 mph 1012.7mb 53f 67f
5:48pm 8 10 mph 1012.7mb 53f 67f
5:42pm 6 7 mph 1012.6mb 53f 68f
5:36pm 7 9 mph 1012.5mb 53f 69f
5:30pm 8 13 mph 1012.4mb 53f 69f
5:24pm 9 14 mph 1012.4mb 53f 69f
5:18pm 8 13 mph 1012.3mb 53f 69f
5:12pm 9 14 mph 1012.3mb 53f 70f
5:06pm 8 10 mph 1012.2mb 53f 70f
5:00pm 8 13 mph 1012.2mb 53f 70f
4:54pm 9 14 mph 1012mb 53f 70f
4:48pm 10 14 mph 1011.9mb 53f 70f
4:42pm 9 13 mph 1011.9mb 53f 70f
4:36pm 9 11 mph 1011.9mb 53f 70f
4:30pm 9 11 mph 1011.9mb 54f 70f
4:24pm 9 13 mph 1012mb 54f 70f
4:18pm 10 15 mph 1012mb 54f 69f
4:12pm 11 16 mph 1012mb 54f 70f
4:06pm 6 10 mph 1012mb 54f 70f
4:00pm 9 13 mph 1011.9mb 54f 70f
3:54pm 11 13 mph 1011.8mb 54f 70f
3:48pm 10 15 mph 1011.7mb 54f 70f
3:42pm 11 14 mph 1011.7mb 54f 70f
3:36pm 11 14 mph 1011.6mb 54f 69f
3:30pm 13 15 mph 1011.6mb 54f 69f
3:24pm 10 14 mph 1011.7mb 54f 72f
3:18pm 10 15 mph 1011.6mb 54f 72f
3:12pm 13 16 mph 1011.6mb 54f 72f
3:06pm 9 16 mph 1011.7mb 54f 71f
3:00pm 11 16 mph 1011.8mb 54f 71f
2:54pm 13 16 mph 1011.8mb 54f 72f
2:48pm 9 14 mph 1012mb 54f 72f
2:42pm 13 17 mph 1012.1mb 54f 72f
2:36pm 11 16 mph 1012mb 54f 72f
2:30pm 11 18 mph 1012.1mb 54f 72f
2:24pm 10 16 mph 1012.2mb 54f 72f
2:18pm 10 18 mph 1012.2mb 54f 73f
2:12pm 9 13 mph 1012.2mb 54f 73f
2:06pm 11 18 mph 1012.2mb 54f 72f
2:00pm 9 13 mph 1012.3mb 54f 72f
1:54pm 9 13 mph 1012.4mb 54f 71f
1:48pm 9 14 mph 1012.4mb 53f 72f
1:42pm 9 14 mph 1012.5mb 53f 71f
1:36pm 9 14 mph 1012.5mb 53f 71f
1:30pm 11 16 mph 1012.6mb 53f 71f
1:24pm 13 18 mph 1012.6mb 53f 71f
1:18pm 8 13 mph 1012.6mb 53f 71f
1:12pm 8 10 mph 1012.8mb 53f 69f
1:06pm 7 10 mph 1012.9mb 53f 70f
1:00pm 6 9 mph 1012.9mb 53f 69f
12:54pm 7 10 mph 1013.1mb 53f 69f
12:48pm 9 13 mph 1013.2mb 53f 69f
12:42pm 6 14 mph 1013.2mb 53f 69f
12:36pm 8 11 mph 1013.3mb 53f 68f
12:30pm 8 11 mph 1013.4mb 53f 67f
12:24pm 7 9 mph 1013.5mb 53f 67f
12:18pm 5 9 mph 1013.6mb 53f 67f
12:12pm 7 8 mph 1013.7mb 53f 67f
12:06pm 5 8 mph 1013.8mb 53f 66f
12:00pm 6 8 mph 1013.9mb 53f 66f
11:54am 6 8 mph 1014.1mb 53f 66f
11:48am 7 9 mph 1014.2mb 53f 65f
11:42am 6 8 mph 1014.4mb 53f 65f
11:36am 6 8 mph 1014.5mb 53f 64f
11:30am 7 8 mph 1014.5mb 53f 64f
11:18am 6 7 mph 1014.7mb 53f 64f
11:12am 6 8 mph 1014.8mb 53f 64f
11:06am 7 8 mph 1014.8mb 53f 63f
11:00am 6 8 mph 1014.9mb 53f 63f
10:54am 5 7 mph 1014.8mb 53f 63f
10:48am 3 5 mph 1014.9mb 53f 62f
10:42am 3
mph
1014.9mb 53f 62f
10:36am 3 5 mph 1014.9mb 53f 62f
10:30am 3
mph
1014.9mb 53f 61f
10:18am 3 5 mph 1015mb 53f 61f
10:12am 2 3 mph 1015mb 53f 60f
10:06am 3 5 mph 1015.1mb 53f 60f
10:00am 3
mph
1015.1mb 52f -
9:54am 1 2 mph 1015.1mb 52f 60f
9:48am  -  mph 1015.2mb 52f 60f
9:42am  -  1 mph 1015.2mb 52f 60f
9:36am  -  mph 1015.2mb 52f 60f
9:30am  -  mph 1015.1mb 52f 59f
9:24am  -  1 mph 1015.1mb 52f 59f
9:18am  -  1 mph 1015.1mb 52f 59f
9:12am 1 2 mph 1015mb 52f 58f
9:06am 1 2 mph 1015mb 52f 58f
9:00am 2
mph
1015mb 52f 58f
8:54am  -  1 mph 1015mb 52f 58f
8:48am 2 3 mph 1014.9mb 52f 58f
8:42am 2 3 mph 1014.8mb 52f 58f
8:36am 3 5 mph 1014.7mb 52f 58f
8:30am 3 6 mph 1014.7mb 52f 58f
8:24am 3 6 mph 1014.6mb 52f 58f
8:18am 3 5 mph 1014.6mb 52f 58f
8:12am 2 3 mph 1014.6mb 52f 58f
8:06am 2 3 mph 1014.6mb 52f 57f
8:00am 2 3 mph 1014.6mb 52f 57f
7:54am 2
mph
1014.6mb 52f 57f
7:48am 1
mph
1014.5mb 52f 57f
7:42am  -  1 mph 1014.4mb 52f 57f
7:36am 1 2 mph 1014.3mb 52f 57f
7:30am 2
mph
1014.2mb 52f 57f
7:24am 2
mph
1014.2mb 52f 57f
7:18am 1
mph
1014.2mb 52f 57f
7:12am  -  1 mph 1014.2mb 52f 57f
7:06am  -  1 mph 1014.2mb 53f 57f
7:00am 2 3 mph 1014.1mb 53f 57f
6:54am 3 5 mph 1014mb 53f 57f
6:48am 2
mph
1014mb - -
6:42am 2
mph
1013.9mb 53f 57f
6:36am 2
mph
1013.8mb 53f 57f
6:30am 1 2 mph 1013.8mb 53f 56f
6:24am 2
mph
1013.8mb 53f 57f
6:18am  -  1 mph 1013.8mb 53f 57f
6:12am  -  1 mph 1013.8mb 53f 57f
6:06am 1 2 mph 1013.8mb 53f 57f
6:00am 1 2 mph 1013.8mb 53f 57f
5:54am 2 3 mph 1013.7mb 53f 57f
5:48am 3
mph
1013.7mb 53f 57f
5:42am 3
mph
1013.8mb 53f 57f
5:36am 3 5 mph 1013.7mb 53f 57f
5:30am 3 5 mph 1013.7mb 53f 58f
5:24am 3 5 mph 1013.7mb 53f 58f
5:18am 2
mph
1013.7mb 53f 58f
5:12am 2 5 mph 1013.7mb 53f 58f
5:00am 2 3 mph 1013.6mb 53f 58f
4:54am 1 2 mph 1013.5mb 53f 58f
4:48am  -  2 mph 1013.4mb 53f 58f
3:54am 3 5 mph 1013mb 53f 57f
3:48am 3 5 mph 1013mb 53f 57f
2:54am 2
mph
1013.1mb 53f 57f
2:48am 1 2 mph 1013.1mb 53f 57f
1:54am 1 2 mph 1013.5mb 53f 58f
1:48am 1 2 mph 1013.5mb 53f 58f
12:54am 2
mph
1013.5mb 53f 58f
12:48am 2
mph
1013.5mb 53f 58f
Wed 02/22 11:54pm 2 5 mph 1013.5mb 53f 58f
11:48pm 2 5 mph 1013.5mb 53f 58f
10:54pm 3 6 mph 1013.8mb 53f 59f
10:48pm 3 5 mph - - -
9:54pm 5 6 mph 1014.3mb 53f 58f
9:48pm 1 2 mph 1014.3mb 53f 58f
8:54pm 2 3 mph 1014.4mb 52f 59f
8:48pm 2 3 mph 1014.5mb 52f 60f
7:54pm 2 3 mph 1014.5mb 52f 60f
7:48pm 5 6 mph - - -
6:54pm 2 3 mph 1014.4mb 52f 60f
6:48pm 3 5 mph 1014.4mb 52f 60f
5:54pm 1 3 mph 1014.6mb 52f 61f
5:48pm 2 3 mph 1014.6mb 52f 61f
4:54pm 5 7 mph 1014.6mb 53f 60f
4:48pm 3 6 mph 1014.6mb 53f 60f
3:54pm 7 8 mph 1014.3mb 53f 62f
3:48pm 5 6 mph 1014.2mb 53f 62f
2:54pm 7 9 mph 1014mb 53f 67f
2:48pm 3 6 mph 1014.1mb 53f 67f
1:54pm 3 5 mph 1014.3mb 53f 67f
1:48pm 3 6 mph 1014.4mb 53f 67f
12:54pm 2 3 mph 1015mb 53f 67f
12:48pm  -  2 mph 1015.1mb 53f 67f
11:54am  -  2 mph 1015.9mb 52f 66f
11:48am  -  1 mph 1016mb 52f 65f
10:54am  -  3 mph 1016.9mb 52f 63f
10:48am 1 7 mph 1016.9mb 52f 63f
9:54am 1 3 mph 1017.2mb 52f 60f
9:48am 1 3 mph 1017.2mb 52f 60f
8:54am  -  2 mph 1017.6mb 52f 56f
8:48am  -  3 mph 1017.7mb 52f 56f
7:54am  -  mph 1017.6mb 52f 52f
7:48am  -  1 mph 1017.5mb 52f 52f
5:54am  -  mph 1017.4mb 52f 49f
5:48am  -  1 mph 1017.4mb 52f 49f
5:42am  -  mph 1017.4mb 52f 49f
5:36am  -  1 mph 1017.4mb 52f 49f
5:30am  -  mph 1017.5mb 52f 49f
5:24am  -  1 mph 1017.5mb 52f 49f
5:18am  -  mph 1017.6mb 52f 49f
5:12am  -  mph 1017.6mb 52f 49f
5:06am  -  mph 1017.5mb 52f 48f
5:00am  -  1 mph 1017.5mb 52f 48f
4:54am  -  mph 1017.5mb 53f 48f
4:48am  -  mph 1017.4mb 53f 48f
4:42am  -  2 mph 1017.5mb 53f 48f
4:36am  -  1 mph 1017.5mb 53f 48f
4:30am  -  2 mph 1017.5mb 53f 48f
4:24am  -  1 mph 1017.5mb 53f 48f
4:18am  -  mph 1017.6mb 53f 48f
4:12am  -  1 mph 1017.6mb 53f 48f
4:06am  -  1 mph 1017.6mb 53f 48f
4:00am  -  mph 1017.7mb 53f 48f
3:54am  -  mph 1017.7mb 53f 48f
3:48am  -  mph 1017.8mb 53f 48f
3:42am  -  mph 1017.8mb 53f 48f
3:36am  -  mph 1017.8mb 53f 48f
3:30am  -  mph 1017.9mb 53f 48f
3:24am  -  mph 1017.9mb 53f 48f
3:18am  -  1 mph 1018mb 53f -
3:12am  -  mph 1018.1mb 53f 48f
3:06am  -  mph 1018.1mb 53f 48f
3:00am  -  mph 1018.1mb 53f 48f
2:54am  -  1 mph 1018mb 53f 48f
2:48am  -  2 mph 1018mb 53f 48f
2:42am  -  1 mph 1018mb 53f 47f
2:36am  -  1 mph 1018mb 53f 47f
2:30am  -  1 mph 1018mb 53f 47f
2:24am 1 2 mph 1018mb 53f 47f
2:18am  -  2 mph 1018.1mb 53f 48f
2:12am  -  1 mph 1018.3mb 53f 48f
2:06am  -  1 mph 1018.5mb 53f 48f
2:00am  -  mph 1018.6mb 53f 48f
1:54am  -  mph 1018.6mb 53f 48f
1:48am  -  1 mph 1018.7mb - -
1:42am  -  1 mph 1018.8mb - -
1:36am  -  mph 1019mb - -
1:30am  -  1 mph 1019mb 53f 48f
1:24am 1 2 mph 1019mb 53f 48f
1:18am 1 2 mph 1019.1mb 53f 48f
1:12am 1 2 mph 1019mb 53f 48f
1:06am 2 3 mph 1019.1mb 53f 48f
1:00am 1 2 mph 1019.3mb 53f 48f
12:54am 1 3 mph 1019.3mb 53f 48f
12:48am 1 2 mph 1019.3mb 53f 47f
12:42am 1 2 mph 1019.3mb 53f 47f
12:36am  -  1 mph 1019.4mb 53f 47f
12:30am  -  1 mph 1019.5mb 53f 47f
12:24am  -  2 mph 1019.5mb 53f 47f
12:18am  -  1 mph 1019.6mb 53f 47f
12:12am  -  2 mph 1019.6mb 53f 47f
12:06am  -  1 mph 1019.7mb 53f 47f
12:00am  -  2 mph 1019.8mb 53f 47f
Tue 02/21 11:54pm  -  2 mph 1019.9mb 53f 47f
11:48pm  -  3 mph 1019.9mb 53f 48f
11:42pm 1 2 mph 1020mb 53f 48f
11:36pm  -  2 mph 1020.1mb 53f 48f
11:30pm  -  2 mph 1020.2mb 53f 48f
11:24pm  -  1 mph 1020.3mb 53f 48f
11:18pm  -  1 mph 1020.4mb 53f 48f
11:12pm  -  2 mph 1020.4mb 53f 48f
11:06pm 1 2 mph 1020.5mb 53f 48f
11:00pm 2 3 mph 1020.6mb 53f 48f
10:54pm 1 2 mph 1020.8mb 53f 48f
10:48pm  -  1 mph 1020.9mb 53f 48f
10:42pm 1 2 mph 1021mb 53f 48f
10:36pm  -  1 mph 1021.1mb 53f 48f
10:30pm  -  2 mph 1021.3mb 53f 48f
10:24pm  -  1 mph 1021.3mb 53f 48f
10:18pm  -  1 mph 1021.4mb 53f 48f
10:12pm 1 2 mph 1021.5mb 52f 48f
10:06pm 1 2 mph 1021.6mb 52f 49f
10:00pm 1 3 mph 1021.7mb 52f 49f
9:54pm  -  1 mph 1021.7mb 52f 49f
9:48pm 1 3 mph 1021.8mb 52f 49f
9:42pm  -  2 mph 1021.9mb 52f 49f
9:36pm  -  1 mph 1022mb 52f 49f
9:30pm 1 2 mph 1022mb 52f 49f
9:24pm 1 2 mph 1021.9mb 52f 49f
9:18pm 2 5 mph 1021.9mb 52f 49f
9:12pm 2 5 mph 1022mb 52f 49f
9:06pm 2 5 mph 1022.1mb 52f 49f
9:00pm 1 3 mph 1022.2mb 52f 49f
8:54pm 1 3 mph 1022.3mb 52f 49f
8:48pm 1 2 mph 1022.4mb 52f 49f
8:42pm 1 3 mph 1022.3mb 52f 49f
8:36pm 1 2 mph 1022.3mb 52f 49f
8:30pm 1 3 mph 1022.2mb 52f 49f
8:24pm 1 2 mph 1022.1mb 52f 49f
8:18pm 2 3 mph - - -
8:12pm 2
mph
1022.1mb 52f 49f
8:06pm 2 3 mph 1022.1mb 52f 49f
8:00pm 2
mph
1022.2mb 52f 49f
7:54pm 1 3 mph 1022.3mb 52f 49f
7:48pm 2 5 mph 1022.2mb 52f 49f
7:42pm 1 2 mph 1022.1mb 52f 49f
7:36pm 2 3 mph 1022.1mb 52f 49f
7:30pm 2 3 mph 1022mb 52f 49f
7:24pm 2 5 mph 1022.1mb 52f 49f
7:18pm 3 6 mph 1022.1mb 52f 49f
7:12pm 3 6 mph 1022.2mb 52f 49f
7:06pm 3 7 mph 1022.2mb 52f 49f
7:00pm 3 5 mph 1022.3mb 52f 49f
6:54pm 3 5 mph 1022.3mb 52f 50f
6:48pm 2 5 mph 1022.4mb 52f 50f
6:42pm 2 5 mph 1022.4mb 52f 50f
6:36pm 3 7 mph 1022.3mb 52f 50f
6:30pm 3 7 mph 1022.3mb 52f 50f
6:24pm 2 6 mph 1022.4mb 52f 51f
6:18pm 3 6 mph 1022.4mb 52f 51f
6:12pm 3 6 mph 1022.4mb 52f 51f
6:06pm 2 3 mph 1022.5mb 52f 51f
6:00pm 3 6 mph 1022.6mb 52f 51f
5:54pm 2 5 mph 1022.6mb 52f 52f
5:48pm 2 5 mph 1022.6mb - -
5:42pm 3 5 mph 1022.5mb 52f 52f
5:36pm 3 6 mph 1022.4mb 52f 52f
5:30pm 3 6 mph 1022.3mb 52f 52f
5:24pm 3 6 mph 1022.2mb 52f 53f
5:18pm 3 6 mph 1022.2mb 52f 53f
5:12pm 3 6 mph 1022.3mb 52f 53f
5:06pm 3 6 mph 1022.2mb 52f 53f
5:00pm 3 6 mph 1022.1mb 52f 53f
4:54pm 5 7 mph 1022.1mb 52f 53f
4:48pm 5 7 mph 1022.2mb - -
4:42pm 3 6 mph 1022.2mb 53f 54f
4:36pm 3 6 mph 1022.2mb 53f 54f
4:30pm 5 9 mph 1022.2mb 53f 54f